AAY963 KPIE-KFNT
Flight info
| Callsign | AAY963 |
|---|---|
| Flight time | N/A |
| Altitude | 36000 |
| Route | ENDED2 LACEN BRUTS Q118 VOSTK DQN TORRR HAZIT VHICL CITYE |
| Aircraft | A320/M-SDE3FGHIRWY/LB1 |
Departure
| Time | 2026-04-22 10:55 |
|---|---|
| Airport | St. Petersburg Clearwater International Airport (KPIE) |
Arrival
| Time | N/A |
|---|---|
| Airport | Bishop International Airport (KFNT) |
| Time | Latitude | Longitude | Altitude | Speed | Heading |
|---|---|---|---|---|---|
| 2026-04-22 10:36 | 27.90699 | -82.69024 | 24 ft | 0 kts | 244° |
| 2026-04-22 10:47 | 27.90702 | -82.69017 | 24 ft | 4 kts | 242° |
| 2026-04-22 10:48 | 27.90716 | -82.68990 | 25 ft | 4 kts | 252° |
| 2026-04-22 10:48 | 27.90718 | -82.68964 | 24 ft | 4 kts | 283° |
| 2026-04-22 10:48 | 27.90706 | -82.68941 | 24 ft | 4 kts | 344° |
| 2026-04-22 10:48 | 27.90679 | -82.68939 | 24 ft | 3 kts | 353° |
| 2026-04-22 10:49 | 27.90676 | -82.68938 | 24 ft | 0 kts | 351° |
| 2026-04-22 10:51 | 27.90752 | -82.68952 | 26 ft | 19 kts | 351° |
| 2026-04-22 10:51 | 27.90901 | -82.68977 | 25 ft | 23 kts | 351° |
| 2026-04-22 10:52 | 27.91062 | -82.69006 | 25 ft | 24 kts | 351° |
| 2026-04-22 10:52 | 27.91232 | -82.69035 | 24 ft | 25 kts | 351° |
| 2026-04-22 10:52 | 27.91409 | -82.69066 | 24 ft | 26 kts | 351° |
| 2026-04-22 10:52 | 27.91594 | -82.69099 | 24 ft | 27 kts | 351° |
| 2026-04-22 10:53 | 27.91785 | -82.69131 | 24 ft | 28 kts | 351° |
| 2026-04-22 10:53 | 27.91977 | -82.69166 | 24 ft | 27 kts | 350° |
| 2026-04-22 10:53 | 27.92151 | -82.69196 | 24 ft | 21 kts | 352° |
| 2026-04-22 10:53 | 27.92259 | -82.69212 | 24 ft | 13 kts | 1° |
| 2026-04-22 10:54 | 27.92320 | -82.69157 | 23 ft | 12 kts | 72° |
| 2026-04-22 10:54 | 27.92313 | -82.69073 | 23 ft | 10 kts | 139° |
| 2026-04-22 10:54 | 27.92251 | -82.69054 | 23 ft | 10 kts | 170° |
| 2026-04-22 10:54 | 27.92048 | -82.69018 | 23 ft | 64 kts | 171° |
| 2026-04-22 10:55 | 27.91370 | -82.68900 | 21 ft | 128 kts | 171° |
| 2026-04-22 10:55 | 27.90344 | -82.68717 | 95 ft | 168 kts | 171° |
| 2026-04-22 10:55 | 27.89187 | -82.68500 | 811 ft | 166 kts | 167° |
| 2026-04-22 10:55 | 27.88036 | -82.68229 | 1372 ft | 179 kts | 165° |
| 2026-04-22 10:56 | 27.86689 | -82.68070 | 1460 ft | 220 kts | 186° |
| 2026-04-22 10:56 | 27.85099 | -82.68631 | 1671 ft | 252 kts | 200° |
| 2026-04-22 10:56 | 27.83421 | -82.69331 | 1606 ft | 258 kts | 196° |
| 2026-04-22 10:56 | 27.81738 | -82.69927 | 1508 ft | 257 kts | 194° |
| 2026-04-22 10:57 | 27.80003 | -82.70537 | 1679 ft | 264 kts | 195° |
| 2026-04-22 10:57 | 27.78207 | -82.71207 | 2429 ft | 271 kts | 195° |
| 2026-04-22 10:57 | 27.76422 | -82.71856 | 3534 ft | 269 kts | 194° |
| 2026-04-22 10:57 | 27.74641 | -82.72506 | 4512 ft | 271 kts | 194° |
| 2026-04-22 10:58 | 27.72841 | -82.73173 | 5359 ft | 274 kts | 195° |
| 2026-04-22 10:58 | 27.71135 | -82.74179 | 6190 ft | 284 kts | 218° |
| 2026-04-22 10:58 | 27.69901 | -82.75956 | 6936 ft | 294 kts | 243° |
| 2026-04-22 10:58 | 27.69284 | -82.78175 | 7736 ft | 299 kts | 258° |
| 2026-04-22 10:59 | 27.68940 | -82.80498 | 8587 ft | 302 kts | 263° |
| 2026-04-22 10:59 | 27.68672 | -82.82850 | 9451 ft | 302 kts | 264° |
| 2026-04-22 10:59 | 27.68451 | -82.85211 | 10278 ft | 304 kts | 268° |
| 2026-04-22 10:59 | 27.68617 | -82.87643 | 10653 ft | 321 kts | 284° |
| 2026-04-22 11:00 | 27.69463 | -82.90024 | 11076 ft | 336 kts | 301° |
| 2026-04-22 11:00 | 27.70948 | -82.92120 | 11440 ft | 352 kts | 317° |
| 2026-04-22 11:00 | 27.72982 | -82.93701 | 11964 ft | 360 kts | 334° |
| 2026-04-22 11:00 | 27.75385 | -82.94561 | 12514 ft | 367 kts | 351° |
| 2026-04-22 11:01 | 27.77939 | -82.94615 | 13261 ft | 368 kts | 6° |
| 2026-04-22 11:01 | 27.80431 | -82.94004 | 14042 ft | 368 kts | 17° |
| 2026-04-22 11:01 | 27.82888 | -82.93123 | 14650 ft | 373 kts | 15° |
| 2026-04-22 11:01 | 27.85421 | -82.92411 | 15220 ft | 378 kts | 11° |
| 2026-04-22 11:02 | 27.88018 | -82.91815 | 15770 ft | 383 kts | 9° |
| 2026-04-22 11:02 | 27.90654 | -82.91253 | 16310 ft | 388 kts | 9° |
| 2026-04-22 11:02 | 27.93348 | -82.90664 | 16881 ft | 391 kts | 9° |
| 2026-04-22 11:02 | 27.96034 | -82.90038 | 17434 ft | 395 kts | 10° |
| 2026-04-22 11:03 | 27.98732 | -82.89369 | 17970 ft | 399 kts | 11° |
| 2026-04-22 11:03 | 28.01449 | -82.88670 | 18491 ft | 402 kts | 11° |
| 2026-04-22 11:03 | 28.04188 | -82.87955 | 18993 ft | 406 kts | 11° |
| 2026-04-22 11:03 | 28.06948 | -82.87232 | 19478 ft | 409 kts | 11° |
| 2026-04-22 11:04 | 28.09734 | -82.86503 | 19981 ft | 412 kts | 10° |
| 2026-04-22 11:04 | 28.12532 | -82.85774 | 20477 ft | 414 kts | 10° |
| 2026-04-22 11:04 | 28.15356 | -82.85042 | 20958 ft | 417 kts | 10° |
| 2026-04-22 11:04 | 28.18191 | -82.84313 | 21424 ft | 420 kts | 9° |
| 2026-04-22 11:05 | 28.21049 | -82.83583 | 21883 ft | 422 kts | 9° |
| 2026-04-22 11:05 | 28.23922 | -82.82852 | 22330 ft | 424 kts | 9° |
| 2026-04-22 11:05 | 28.26809 | -82.82118 | 22760 ft | 427 kts | 9° |
| 2026-04-22 11:05 | 28.29714 | -82.81374 | 23185 ft | 429 kts | 9° |
| 2026-04-22 11:06 | 28.32635 | -82.80617 | 23598 ft | 432 kts | 9° |
| 2026-04-22 11:06 | 28.35571 | -82.79854 | 24009 ft | 434 kts | 9° |
| 2026-04-22 11:06 | 28.38523 | -82.79112 | 24399 ft | 435 kts | 6° |
| 2026-04-22 11:06 | 28.41524 | -82.78780 | 24770 ft | 432 kts | 356° |
| 2026-04-22 11:07 | 28.44507 | -82.79009 | 25114 ft | 429 kts | 347° |
| 2026-04-22 11:07 | 28.47465 | -82.79501 | 25468 ft | 431 kts | 347° |
| 2026-04-22 11:07 | 28.50434 | -82.79992 | 25814 ft | 434 kts | 347° |
| 2026-04-22 11:07 | 28.53432 | -82.80483 | 26146 ft | 436 kts | 347° |
| 2026-04-22 11:08 | 28.56439 | -82.80973 | 26496 ft | 438 kts | 347° |
| 2026-04-22 11:08 | 28.59460 | -82.81473 | 26835 ft | 439 kts | 347° |
| 2026-04-22 11:08 | 28.62485 | -82.82001 | 27151 ft | 441 kts | 346° |
| 2026-04-22 11:08 | 28.65525 | -82.82551 | 27453 ft | 443 kts | 346° |
| 2026-04-22 11:09 | 28.68579 | -82.83116 | 27756 ft | 445 kts | 346° |
| 2026-04-22 11:09 | 28.71642 | -82.83682 | 28050 ft | 447 kts | 346° |
| 2026-04-22 11:09 | 28.74721 | -82.84245 | 28339 ft | 449 kts | 346° |
| 2026-04-22 11:09 | 28.77807 | -82.84809 | 28633 ft | 450 kts | 346° |
| 2026-04-22 11:10 | 28.80944 | -82.85382 | 28914 ft | 452 kts | 346° |
| 2026-04-22 11:10 | 28.84055 | -82.85952 | 29181 ft | 453 kts | 346° |
| 2026-04-22 11:10 | 28.87174 | -82.86520 | 29451 ft | 455 kts | 346° |
| 2026-04-22 11:10 | 28.90301 | -82.87081 | 29834 ft | 453 kts | 346° |
| 2026-04-22 11:11 | 28.93411 | -82.87638 | 30215 ft | 452 kts | 346° |
| 2026-04-22 11:11 | 28.96506 | -82.88195 | 30590 ft | 450 kts | 345° |
| 2026-04-22 11:11 | 28.99600 | -82.88753 | 30964 ft | 449 kts | 345° |
| 2026-04-22 11:11 | 29.02681 | -82.89307 | 31323 ft | 447 kts | 345° |
| 2026-04-22 11:12 | 29.05750 | -82.89860 | 31682 ft | 446 kts | 345° |
| 2026-04-22 11:12 | 29.08815 | -82.90417 | 32034 ft | 445 kts | 345° |
| 2026-04-22 11:12 | 29.11862 | -82.90973 | 32394 ft | 443 kts | 345° |
| 2026-04-22 11:12 | 29.14906 | -82.91529 | 32747 ft | 442 kts | 345° |
| 2026-04-22 11:13 | 29.17935 | -82.92080 | 33083 ft | 440 kts | 345° |
| 2026-04-22 11:13 | 29.20959 | -82.92635 | 33411 ft | 439 kts | 344° |
| 2026-04-22 11:13 | 29.23971 | -82.93187 | 33748 ft | 438 kts | 344° |
| 2026-04-22 11:13 | 29.26974 | -82.93738 | 34087 ft | 436 kts | 344° |
| 2026-04-22 11:14 | 29.29962 | -82.94287 | 34412 ft | 435 kts | 344° |
| 2026-04-22 11:14 | 29.32944 | -82.94834 | 34737 ft | 433 kts | 344° |
| 2026-04-22 11:14 | 29.35921 | -82.95377 | 35054 ft | 432 kts | 344° |
| 2026-04-22 11:14 | 29.38884 | -82.95916 | 35345 ft | 431 kts | 343° |
| 2026-04-22 11:15 | 29.41842 | -82.96457 | 35650 ft | 430 kts | 343° |
| 2026-04-22 11:15 | 29.44790 | -82.96997 | 35932 ft | 428 kts | 343° |
| 2026-04-22 11:15 | 29.47729 | -82.97536 | 36179 ft | 428 kts | 343° |
| 2026-04-22 11:16 | 29.53448 | -82.99109 | 36285 ft | 416 kts | 331° |
| 2026-04-22 11:16 | 29.58793 | -83.01654 | 36284 ft | 416 kts | 330° |
| 2026-04-22 11:17 | 29.64136 | -83.04213 | 36284 ft | 416 kts | 331° |
| 2026-04-22 11:17 | 29.69487 | -83.06765 | 36285 ft | 416 kts | 330° |
| 2026-04-22 11:18 | 29.74835 | -83.09323 | 36284 ft | 416 kts | 331° |
| 2026-04-22 11:18 | 29.79316 | -83.11456 | 36283 ft | 416 kts | 331° |
| 2026-04-22 11:19 | 29.84660 | -83.14007 | 36282 ft | 416 kts | 330° |
| 2026-04-22 11:19 | 29.90000 | -83.16561 | 36283 ft | 416 kts | 330° |
| 2026-04-22 11:20 | 29.95345 | -83.19127 | 36285 ft | 416 kts | 330° |
| 2026-04-22 11:20 | 30.00674 | -83.21687 | 36286 ft | 416 kts | 330° |
| 2026-04-22 11:21 | 30.06025 | -83.24272 | 36280 ft | 416 kts | 330° |
| 2026-04-22 11:21 | 30.11371 | -83.26846 | 36280 ft | 417 kts | 330° |
| 2026-04-22 11:22 | 30.16725 | -83.29418 | 36280 ft | 417 kts | 330° |
| 2026-04-22 11:22 | 30.22078 | -83.31995 | 36281 ft | 417 kts | 330° |
| 2026-04-22 11:23 | 30.27429 | -83.34581 | 36284 ft | 417 kts | 330° |
| 2026-04-22 11:23 | 30.32815 | -83.37187 | 36287 ft | 417 kts | 330° |
| 2026-04-22 11:24 | 30.38170 | -83.39778 | 36293 ft | 417 kts | 330° |
| 2026-04-22 11:24 | 30.43530 | -83.42372 | 36306 ft | 417 kts | 330° |
| 2026-04-22 11:25 | 30.48889 | -83.44968 | 36301 ft | 418 kts | 330° |
| 2026-04-22 11:25 | 30.54251 | -83.47574 | 36310 ft | 418 kts | 330° |
| 2026-04-22 11:26 | 30.59614 | -83.50177 | 36301 ft | 418 kts | 330° |
| 2026-04-22 11:26 | 30.64979 | -83.52786 | 36302 ft | 418 kts | 330° |
| 2026-04-22 11:27 | 30.70336 | -83.55396 | 36306 ft | 417 kts | 330° |
| 2026-04-22 11:27 | 30.75692 | -83.58013 | 36301 ft | 417 kts | 330° |
| 2026-04-22 11:28 | 30.81052 | -83.60626 | 36298 ft | 418 kts | 330° |
| 2026-04-22 11:28 | 30.86410 | -83.63239 | 36295 ft | 418 kts | 330° |
| 2026-04-22 11:29 | 30.91770 | -83.65865 | 36292 ft | 418 kts | 330° |
| 2026-04-22 11:29 | 30.97122 | -83.68492 | 36286 ft | 418 kts | 330° |
| 2026-04-22 11:30 | 31.02479 | -83.71128 | 36285 ft | 418 kts | 330° |
| 2026-04-22 11:30 | 31.07847 | -83.73769 | 36285 ft | 419 kts | 330° |
| 2026-04-22 11:31 | 31.13252 | -83.76423 | 36287 ft | 419 kts | 330° |
| 2026-04-22 11:31 | 31.18629 | -83.79066 | 36288 ft | 419 kts | 330° |
| 2026-04-22 11:32 | 31.24008 | -83.81722 | 36290 ft | 420 kts | 330° |
| 2026-04-22 11:32 | 31.29390 | -83.84376 | 36291 ft | 420 kts | 330° |
| 2026-04-22 11:33 | 31.34775 | -83.87044 | 36289 ft | 420 kts | 330° |
| 2026-04-22 11:33 | 31.40164 | -83.89717 | 36286 ft | 421 kts | 330° |
| 2026-04-22 11:34 | 31.45555 | -83.92388 | 36283 ft | 421 kts | 330° |
| 2026-04-22 11:34 | 31.50953 | -83.95060 | 36282 ft | 422 kts | 332° |
| 2026-04-22 11:35 | 31.56740 | -83.96718 | 36279 ft | 432 kts | 342° |
| 2026-04-22 11:35 | 31.62646 | -83.98018 | 36274 ft | 432 kts | 342° |
| 2026-04-22 11:36 | 31.68559 | -83.99338 | 36274 ft | 433 kts | 342° |
| 2026-04-22 11:36 | 31.74471 | -84.00655 | 36277 ft | 433 kts | 342° |
| 2026-04-22 11:37 | 31.80385 | -84.01975 | 36274 ft | 433 kts | 342° |
| 2026-04-22 11:37 | 31.86316 | -84.03301 | 36272 ft | 434 kts | 342° |
| 2026-04-22 11:38 | 31.92286 | -84.04633 | 36274 ft | 434 kts | 342° |
| 2026-04-22 11:38 | 32.01189 | -84.06622 | 36274 ft | 434 kts | 342° |
| 2026-04-22 11:39 | 32.07124 | -84.07953 | 36273 ft | 434 kts | 342° |
| 2026-04-22 11:39 | 32.13060 | -84.09282 | 36271 ft | 435 kts | 342° |
| 2026-04-22 11:40 | 32.19003 | -84.10616 | 36268 ft | 435 kts | 342° |
| 2026-04-22 11:40 | 32.24940 | -84.11954 | 36270 ft | 435 kts | 342° |
| 2026-04-22 11:41 | 32.30879 | -84.13290 | 36273 ft | 434 kts | 342° |
| 2026-04-22 11:41 | 32.36816 | -84.14632 | 36274 ft | 434 kts | 342° |
| 2026-04-22 11:42 | 32.42753 | -84.15973 | 36275 ft | 434 kts | 342° |
| 2026-04-22 11:42 | 32.48687 | -84.17314 | 36281 ft | 434 kts | 342° |
| 2026-04-22 11:43 | 32.54623 | -84.18660 | 36286 ft | 434 kts | 342° |
| 2026-04-22 11:43 | 32.60555 | -84.20011 | 36291 ft | 434 kts | 342° |
| 2026-04-22 11:44 | 32.66488 | -84.21351 | 36290 ft | 434 kts | 342° |
| 2026-04-22 11:44 | 32.72420 | -84.22694 | 36292 ft | 434 kts | 342° |
| 2026-04-22 11:45 | 32.78353 | -84.24041 | 36295 ft | 434 kts | 342° |
| 2026-04-22 11:45 | 32.84327 | -84.25407 | 36308 ft | 434 kts | 342° |
| 2026-04-22 11:46 | 32.90257 | -84.26767 | 36306 ft | 434 kts | 342° |
| 2026-04-22 11:46 | 32.96182 | -84.28118 | 36299 ft | 434 kts | 342° |
| 2026-04-22 11:47 | 33.02118 | -84.29470 | 36303 ft | 434 kts | 342° |
| 2026-04-22 11:47 | 33.08039 | -84.30830 | 36308 ft | 433 kts | 342° |
| 2026-04-22 11:48 | 33.13961 | -84.32194 | 36302 ft | 433 kts | 342° |
| 2026-04-22 11:48 | 33.19880 | -84.33559 | 36311 ft | 433 kts | 342° |
| 2026-04-22 11:49 | 33.25799 | -84.34919 | 36304 ft | 433 kts | 342° |
| 2026-04-22 11:49 | 33.31716 | -84.36278 | 36301 ft | 433 kts | 342° |
| 2026-04-22 11:50 | 33.37633 | -84.37642 | 36305 ft | 433 kts | 342° |
| 2026-04-22 11:50 | 33.43544 | -84.39004 | 36320 ft | 433 kts | 342° |
| 2026-04-22 11:51 | 33.48493 | -84.40150 | 36315 ft | 432 kts | 342° |
| 2026-04-22 11:51 | 33.54403 | -84.41522 | 36307 ft | 432 kts | 342° |
| 2026-04-22 11:52 | 33.60303 | -84.42902 | 36302 ft | 432 kts | 342° |
| 2026-04-22 11:52 | 33.66211 | -84.44264 | 36297 ft | 432 kts | 343° |
| 2026-04-22 11:53 | 33.72140 | -84.45556 | 36296 ft | 433 kts | 343° |
| 2026-04-22 11:53 | 33.78063 | -84.46836 | 36297 ft | 432 kts | 343° |
| 2026-04-22 11:54 | 33.83981 | -84.48130 | 36298 ft | 432 kts | 343° |
| 2026-04-22 11:54 | 33.89892 | -84.49437 | 36297 ft | 432 kts | 343° |
| 2026-04-22 11:55 | 33.95806 | -84.50748 | 36298 ft | 432 kts | 343° |
| 2026-04-22 11:55 | 34.01719 | -84.52054 | 36308 ft | 432 kts | 343° |
| 2026-04-22 11:56 | 34.07742 | -84.52834 | 36302 ft | 436 kts | 348° |
| 2026-04-22 11:56 | 34.13786 | -84.53471 | 36300 ft | 436 kts | 348° |
| 2026-04-22 11:57 | 34.19826 | -84.54097 | 36320 ft | 436 kts | 349° |
| 2026-04-22 11:57 | 34.25914 | -84.54728 | 36311 ft | 436 kts | 348° |
| 2026-04-22 11:58 | 34.31920 | -84.55363 | 36306 ft | 436 kts | 349° |
| 2026-04-22 11:58 | 34.38000 | -84.56006 | 36309 ft | 436 kts | 349° |
| 2026-04-22 11:59 | 34.44038 | -84.56635 | 36308 ft | 436 kts | 349° |
| 2026-04-22 11:59 | 34.50081 | -84.57268 | 36306 ft | 436 kts | 349° |
| 2026-04-22 12:00 | 34.56118 | -84.57906 | 36303 ft | 436 kts | 349° |
| 2026-04-22 12:00 | 34.62162 | -84.58548 | 36311 ft | 436 kts | 349° |
| 2026-04-22 12:01 | 34.68205 | -84.59190 | 36306 ft | 436 kts | 349° |
| 2026-04-22 12:01 | 34.74248 | -84.59829 | 36312 ft | 436 kts | 349° |
| 2026-04-22 12:02 | 34.80290 | -84.60475 | 36311 ft | 436 kts | 349° |
| 2026-04-22 12:02 | 34.86326 | -84.61117 | 36312 ft | 435 kts | 349° |
| 2026-04-22 12:03 | 34.92363 | -84.61753 | 36311 ft | 435 kts | 349° |
| 2026-04-22 12:03 | 34.98393 | -84.62394 | 36311 ft | 435 kts | 349° |
| 2026-04-22 12:04 | 35.04422 | -84.63044 | 36295 ft | 435 kts | 350° |
| 2026-04-22 12:04 | 35.10446 | -84.63684 | 36293 ft | 434 kts | 350° |
| 2026-04-22 12:05 | 35.16469 | -84.64329 | 36287 ft | 434 kts | 350° |
| 2026-04-22 12:05 | 35.22483 | -84.64972 | 36284 ft | 434 kts | 350° |
| 2026-04-22 12:06 | 35.28539 | -84.65630 | 36280 ft | 434 kts | 350° |
| 2026-04-22 12:06 | 35.34551 | -84.66281 | 36281 ft | 434 kts | 350° |
| 2026-04-22 12:07 | 35.40555 | -84.66928 | 36284 ft | 434 kts | 350° |
| 2026-04-22 12:07 | 35.46574 | -84.67567 | 36289 ft | 434 kts | 350° |
| 2026-04-22 12:08 | 35.52586 | -84.68215 | 36293 ft | 434 kts | 351° |
| 2026-04-22 12:08 | 35.58583 | -84.68869 | 36311 ft | 432 kts | 353° |
| 2026-04-22 12:09 | 35.64549 | -84.69521 | 36318 ft | 429 kts | 353° |
| 2026-04-22 12:09 | 35.70492 | -84.70162 | 36331 ft | 428 kts | 353° |
| 2026-04-22 12:10 | 35.76416 | -84.70804 | 36315 ft | 426 kts | 353° |
| 2026-04-22 12:10 | 35.82315 | -84.71443 | 36311 ft | 425 kts | 353° |
| 2026-04-22 12:11 | 35.88200 | -84.72089 | 36307 ft | 424 kts | 353° |
| 2026-04-22 12:11 | 35.94079 | -84.72735 | 36302 ft | 424 kts | 353° |
| 2026-04-22 12:12 | 35.99954 | -84.73374 | 36300 ft | 424 kts | 353° |
| 2026-04-22 12:12 | 36.05818 | -84.74018 | 36317 ft | 422 kts | 354° |
| 2026-04-22 12:13 | 36.11664 | -84.74661 | 36320 ft | 421 kts | 354° |
| 2026-04-22 12:13 | 36.17493 | -84.75304 | 36306 ft | 420 kts | 354° |
| 2026-04-22 12:14 | 36.23352 | -84.75949 | 36307 ft | 420 kts | 354° |
| 2026-04-22 12:14 | 36.29174 | -84.76580 | 36300 ft | 420 kts | 354° |
| 2026-04-22 12:15 | 36.34963 | -84.77215 | 36299 ft | 419 kts | 354° |
| 2026-04-22 12:15 | 36.40781 | -84.77863 | 36295 ft | 418 kts | 354° |
| 2026-04-22 12:16 | 36.46598 | -84.77900 | 36289 ft | 419 kts | 360° |
| 2026-04-22 12:16 | 36.52428 | -84.77733 | 36287 ft | 419 kts | 360° |
| 2026-04-22 12:17 | 36.58252 | -84.77564 | 36287 ft | 418 kts | 360° |
| 2026-04-22 12:17 | 36.64065 | -84.77395 | 36282 ft | 418 kts | 360° |
| 2026-04-22 12:18 | 36.69878 | -84.77226 | 36280 ft | 417 kts | 359° |
| 2026-04-22 12:18 | 36.75677 | -84.77064 | 36277 ft | 417 kts | 360° |
| 2026-04-22 12:19 | 36.81478 | -84.76899 | 36275 ft | 417 kts | 360° |
| 2026-04-22 12:19 | 36.87270 | -84.76728 | 36277 ft | 416 kts | 360° |
| 2026-04-22 12:20 | 36.93058 | -84.76555 | 36275 ft | 416 kts | 360° |
| 2026-04-22 12:20 | 36.98822 | -84.76383 | 36269 ft | 415 kts | 360° |
| 2026-04-22 12:21 | 37.04655 | -84.76209 | 36262 ft | 415 kts | 360° |
| 2026-04-22 12:21 | 37.10417 | -84.76032 | 36255 ft | 414 kts | 360° |
| 2026-04-22 12:22 | 37.16184 | -84.75865 | 36244 ft | 414 kts | 359° |
| 2026-04-22 12:22 | 37.21947 | -84.75704 | 36248 ft | 414 kts | 359° |
| 2026-04-22 12:23 | 37.27702 | -84.75539 | 36248 ft | 414 kts | 360° |
| 2026-04-22 12:23 | 37.33459 | -84.75361 | 36243 ft | 413 kts | 360° |
| 2026-04-22 12:24 | 37.38241 | -84.75208 | 36246 ft | 413 kts | 360° |
| 2026-04-22 12:24 | 37.43990 | -84.75016 | 36245 ft | 413 kts | 360° |
| 2026-04-22 12:25 | 37.49735 | -84.74822 | 36243 ft | 413 kts | 360° |
| 2026-04-22 12:25 | 37.55481 | -84.74639 | 36247 ft | 413 kts | 360° |
| 2026-04-22 12:26 | 37.61261 | -84.74456 | 36250 ft | 412 kts | 360° |
| 2026-04-22 12:26 | 37.66996 | -84.74266 | 36248 ft | 412 kts | 359° |
| 2026-04-22 12:27 | 37.72730 | -84.74080 | 36239 ft | 412 kts | 359° |
| 2026-04-22 12:27 | 37.78470 | -84.73905 | 36237 ft | 412 kts | 359° |
| 2026-04-22 12:28 | 37.84198 | -84.73729 | 36229 ft | 412 kts | 359° |
| 2026-04-22 12:28 | 37.89922 | -84.73549 | 36227 ft | 412 kts | 359° |
| 2026-04-22 12:29 | 37.95655 | -84.73377 | 36221 ft | 412 kts | 359° |
| 2026-04-22 12:29 | 38.01389 | -84.73188 | 36217 ft | 412 kts | 359° |
| 2026-04-22 12:30 | 38.09976 | -84.72920 | 36223 ft | 411 kts | 359° |
| 2026-04-22 12:31 | 38.15683 | -84.72742 | 36219 ft | 410 kts | 359° |
| 2026-04-22 12:31 | 38.21386 | -84.72571 | 36213 ft | 410 kts | 359° |
| 2026-04-22 12:32 | 38.27078 | -84.72401 | 36210 ft | 409 kts | 359° |
| 2026-04-22 12:32 | 38.35599 | -84.72132 | 36202 ft | 408 kts | 359° |
| 2026-04-22 12:33 | 38.41272 | -84.71943 | 36193 ft | 407 kts | 359° |
| 2026-04-22 12:33 | 38.46939 | -84.71731 | 36180 ft | 408 kts | 2° |
| 2026-04-22 12:34 | 38.52604 | -84.70661 | 36174 ft | 409 kts | 6° |
| 2026-04-22 12:34 | 38.58220 | -84.69516 | 36168 ft | 409 kts | 6° |
| 2026-04-22 12:35 | 38.63846 | -84.68357 | 36164 ft | 409 kts | 6° |
| 2026-04-22 12:35 | 38.69465 | -84.67200 | 36163 ft | 409 kts | 6° |
| 2026-04-22 12:36 | 38.75087 | -84.66058 | 36162 ft | 409 kts | 6° |
| 2026-04-22 12:36 | 38.80711 | -84.64903 | 36162 ft | 409 kts | 6° |
| 2026-04-22 12:37 | 38.86340 | -84.63749 | 36160 ft | 409 kts | 6° |
| 2026-04-22 12:37 | 38.91958 | -84.62596 | 36158 ft | 409 kts | 6° |
| 2026-04-22 12:38 | 38.97572 | -84.61435 | 36154 ft | 409 kts | 6° |
| 2026-04-22 12:38 | 39.03191 | -84.60274 | 36152 ft | 409 kts | 6° |
| 2026-04-22 12:39 | 39.11616 | -84.58540 | 36152 ft | 408 kts | 5° |
| 2026-04-22 12:40 | 39.17224 | -84.57384 | 36150 ft | 408 kts | 5° |
| 2026-04-22 12:40 | 39.22827 | -84.56223 | 36152 ft | 408 kts | 5° |
| 2026-04-22 12:41 | 39.28430 | -84.55062 | 36148 ft | 407 kts | 5° |
| 2026-04-22 12:41 | 39.34022 | -84.53900 | 36147 ft | 407 kts | 5° |
| 2026-04-22 12:42 | 39.39658 | -84.52724 | 36149 ft | 407 kts | 5° |
| 2026-04-22 12:42 | 39.45257 | -84.51557 | 36150 ft | 407 kts | 5° |
| 2026-04-22 12:43 | 39.50847 | -84.50385 | 36151 ft | 407 kts | 5° |
| 2026-04-22 12:43 | 39.56439 | -84.49203 | 36152 ft | 407 kts | 5° |
| 2026-04-22 12:44 | 39.62030 | -84.48034 | 36154 ft | 407 kts | 5° |
| 2026-04-22 12:44 | 39.67616 | -84.46871 | 36156 ft | 406 kts | 5° |
| 2026-04-22 12:45 | 39.73195 | -84.45695 | 36148 ft | 406 kts | 5° |
| 2026-04-22 12:45 | 39.78775 | -84.44525 | 36147 ft | 406 kts | 5° |
| 2026-04-22 12:46 | 39.84351 | -84.43351 | 36145 ft | 406 kts | 5° |
| 2026-04-22 12:46 | 39.89919 | -84.42168 | 36139 ft | 405 kts | 5° |
| 2026-04-22 12:47 | 39.95477 | -84.40989 | 36128 ft | 405 kts | 5° |
| 2026-04-22 12:47 | 40.01014 | -84.39845 | 36127 ft | 403 kts | 1° |
| 2026-04-22 12:48 | 40.06613 | -84.39820 | 36116 ft | 399 kts | 355° |
| 2026-04-22 12:48 | 40.12171 | -84.39973 | 36115 ft | 399 kts | 355° |
| 2026-04-22 12:49 | 40.17727 | -84.40121 | 36113 ft | 399 kts | 355° |
| 2026-04-22 12:49 | 40.23281 | -84.40263 | 36111 ft | 399 kts | 355° |
| 2026-04-22 12:50 | 40.28876 | -84.40412 | 36107 ft | 399 kts | 355° |
| 2026-04-22 12:50 | 40.34421 | -84.40559 | 36107 ft | 399 kts | 355° |
| 2026-04-22 12:51 | 40.39966 | -84.40706 | 36101 ft | 398 kts | 355° |
| 2026-04-22 12:51 | 40.45503 | -84.40856 | 36095 ft | 398 kts | 355° |
| 2026-04-22 12:52 | 40.51044 | -84.41001 | 36091 ft | 398 kts | 355° |
| 2026-04-22 12:52 | 40.56590 | -84.41148 | 36090 ft | 399 kts | 355° |
| 2026-04-22 12:53 | 40.62131 | -84.41300 | 36093 ft | 398 kts | 355° |
| 2026-04-22 12:53 | 40.67673 | -84.41452 | 36091 ft | 397 kts | 355° |
| 2026-04-22 12:54 | 40.73198 | -84.41618 | 36086 ft | 397 kts | 353° |
| 2026-04-22 12:54 | 40.78600 | -84.42810 | 36081 ft | 393 kts | 346° |
| 2026-04-22 12:55 | 40.83060 | -84.43990 | 36075 ft | 393 kts | 346° |
| 2026-04-22 12:55 | 40.89323 | -84.45648 | 36069 ft | 393 kts | 346° |
| 2026-04-22 12:56 | 40.94676 | -84.47072 | 36064 ft | 392 kts | 346° |
| 2026-04-22 12:56 | 41.00032 | -84.48500 | 36061 ft | 393 kts | 346° |
| 2026-04-22 12:57 | 41.05390 | -84.49927 | 36066 ft | 393 kts | 346° |
| 2026-04-22 12:57 | 41.10755 | -84.51354 | 36064 ft | 393 kts | 346° |
| 2026-04-22 12:58 | 41.16118 | -84.52786 | 36064 ft | 393 kts | 346° |
| 2026-04-22 12:58 | 41.20609 | -84.53995 | 36067 ft | 393 kts | 346° |
| 2026-04-22 12:59 | 41.25970 | -84.55432 | 36066 ft | 393 kts | 346° |
| 2026-04-22 12:59 | 41.31327 | -84.56872 | 36065 ft | 393 kts | 346° |
| 2026-04-22 13:00 | 41.36680 | -84.58324 | 36071 ft | 393 kts | 346° |
| 2026-04-22 13:00 | 41.42038 | -84.59771 | 36066 ft | 393 kts | 346° |
| 2026-04-22 13:01 | 41.47397 | -84.61220 | 36069 ft | 393 kts | 346° |
| 2026-04-22 13:01 | 41.52755 | -84.62665 | 36065 ft | 393 kts | 345° |
| 2026-04-22 13:02 | 41.58151 | -84.64130 | 36064 ft | 393 kts | 345° |
| 2026-04-22 13:02 | 41.63467 | -84.65582 | 36062 ft | 393 kts | 345° |
| 2026-04-22 13:03 | 41.68853 | -84.67044 | 36060 ft | 392 kts | 345° |
| 2026-04-22 13:03 | 41.74206 | -84.68490 | 36059 ft | 392 kts | 345° |
| 2026-04-22 13:04 | 41.79546 | -84.69945 | 36063 ft | 392 kts | 345° |
| 2026-04-22 13:04 | 41.84887 | -84.71412 | 36057 ft | 392 kts | 345° |
| 2026-04-22 13:05 | 41.90333 | -84.72058 | 36053 ft | 397 kts | 357° |
| 2026-04-22 13:05 | 41.95861 | -84.71804 | 36054 ft | 397 kts | 357° |
| 2026-04-22 13:06 | 42.01381 | -84.71542 | 36060 ft | 397 kts | 357° |
| 2026-04-22 13:06 | 42.06893 | -84.71295 | 36064 ft | 396 kts | 357° |
| 2026-04-22 13:07 | 42.12400 | -84.71059 | 36060 ft | 396 kts | 357° |
| 2026-04-22 13:07 | 42.17906 | -84.70803 | 36060 ft | 396 kts | 357° |
| 2026-04-22 13:08 | 42.23415 | -84.70548 | 36057 ft | 396 kts | 357° |
| 2026-04-22 13:08 | 42.28920 | -84.70307 | 36061 ft | 396 kts | 357° |
| 2026-04-22 13:09 | 42.34460 | -84.69459 | 36056 ft | 405 kts | 9° |
| 2026-04-22 13:09 | 42.39719 | -84.66462 | 36051 ft | 413 kts | 18° |
| 2026-04-22 13:10 | 42.44919 | -84.63186 | 36059 ft | 412 kts | 18° |
| 2026-04-22 13:10 | 42.50114 | -84.59912 | 36046 ft | 412 kts | 18° |
| 2026-04-22 13:11 | 42.55311 | -84.56623 | 36041 ft | 412 kts | 18° |
| 2026-04-22 13:11 | 42.60509 | -84.53335 | 36037 ft | 413 kts | 18° |
| 2026-04-22 13:12 | 42.65705 | -84.50031 | 36047 ft | 412 kts | 18° |
| 2026-04-22 13:12 | 42.70904 | -84.46726 | 36049 ft | 412 kts | 18° |